createdAt,value
2024-05-09T00:02:08.840Z,-83
2024-05-09T00:04:39.221Z,-83
2024-05-09T00:07:09.500Z,-83
2024-05-09T00:09:42.289Z,-83
2024-05-09T00:12:12.569Z,-83
2024-05-09T00:14:42.838Z,-83
2024-05-09T00:17:12.983Z,-83
2024-05-09T00:19:43.297Z,-83
2024-05-09T00:22:13.429Z,-82
2024-05-09T00:24:46.469Z,-83
2024-05-09T00:27:16.848Z,-83
2024-05-09T00:29:47.016Z,-83
2024-05-09T00:32:17.276Z,-83
2024-05-09T00:34:48.251Z,-83
2024-05-09T00:37:18.954Z,-84
2024-05-09T00:39:51.709Z,-83
2024-05-09T00:42:21.885Z,-84
2024-05-09T00:44:52.087Z,-84
2024-05-09T00:47:22.511Z,-83
2024-05-09T00:49:53.065Z,-84
2024-05-09T00:52:25.140Z,-84
2024-05-09T00:54:59.546Z,-83
2024-05-09T00:57:30.707Z,-83
2024-05-09T01:00:01.762Z,-83
2024-05-09T01:02:32.770Z,-84
2024-05-09T01:05:03.201Z,-84
2024-05-09T01:07:33.726Z,-84
2024-05-09T01:10:13.806Z,-84
2024-05-09T01:12:47.673Z,-84
2024-05-09T01:15:18.054Z,-84
2024-05-09T01:17:48.638Z,-84
2024-05-09T01:20:22.945Z,-84
2024-05-09T01:22:59.722Z,-84
2024-05-09T01:25:33.108Z,-83
2024-05-09T01:28:03.214Z,-84
2024-05-09T01:30:35.936Z,-83
2024-05-09T01:33:09.957Z,-83
2024-05-09T01:35:43.124Z,-83
2024-05-09T01:38:17.344Z,-84
2024-05-09T01:40:51.536Z,-84
2024-05-09T01:43:21.686Z,-83
2024-05-09T01:45:52.100Z,-83
2024-05-09T01:48:22.513Z,-82
2024-05-09T01:50:52.725Z,-82
2024-05-09T01:53:22.914Z,-82
2024-05-09T01:55:55.802Z,-83
2024-05-09T01:58:26.629Z,-83
2024-05-09T02:00:56.874Z,-83
2024-05-09T02:03:27.396Z,-84
2024-05-09T02:05:57.720Z,-83
2024-05-09T02:08:28.020Z,-84
2024-05-09T02:11:00.913Z,-84
2024-05-09T02:13:31.074Z,-83
2024-05-09T02:16:01.257Z,-83
2024-05-09T02:18:31.546Z,-83
2024-05-09T02:21:01.821Z,-83
2024-05-09T02:23:32.371Z,-83
2024-05-09T02:26:05.231Z,-83
2024-05-09T02:28:35.835Z,-83
2024-05-09T02:31:06.457Z,-83
2024-05-09T02:33:36.717Z,-83
2024-05-09T02:36:09.340Z,-83
2024-05-09T02:38:37.600Z,-84
2024-05-09T02:41:11.623Z,-84
2024-05-09T02:43:39.179Z,-84
2024-05-09T02:46:10.370Z,-84
2024-05-09T02:48:38.049Z,-84
2024-05-09T02:51:08.708Z,-83
2024-05-09T02:53:36.567Z,-84
2024-05-09T02:56:10.382Z,-83
2024-05-09T02:58:38.011Z,-83
2024-05-09T03:01:08.435Z,-83
2024-05-09T03:03:36.288Z,-83
2024-05-09T03:06:06.869Z,-83
2024-05-09T03:08:34.616Z,-84
2024-05-09T03:11:04.916Z,-83
2024-05-09T03:13:35.085Z,-83
2024-05-09T03:16:05.527Z,-83
2024-05-09T03:18:33.076Z,-83
2024-05-09T03:21:03.323Z,-83
2024-05-09T03:23:31.005Z,-83
2024-05-09T03:26:01.245Z,-84
2024-05-09T03:28:28.796Z,-84
2024-05-09T03:31:01.602Z,-84
2024-05-09T03:33:29.390Z,-84
2024-05-09T03:35:59.613Z,-83
2024-05-09T03:38:29.774Z,-84
2024-05-09T03:41:00.786Z,-84
2024-05-09T03:43:30.852Z,-83
2024-05-09T03:46:00.978Z,-83
2024-05-09T03:48:31.474Z,-84
2024-05-09T03:51:01.764Z,-84
2024-05-09T03:53:29.425Z,-84
2024-05-09T03:55:59.900Z,-83
2024-05-09T03:58:27.330Z,-84
2024-05-09T04:00:57.476Z,-84
2024-05-09T04:03:27.855Z,-83
2024-05-09T04:05:58.063Z,-84
2024-05-09T04:08:25.560Z,-84
2024-05-09T04:10:55.775Z,-84
2024-05-09T04:13:23.251Z,-84
2024-05-09T04:15:53.448Z,-83
2024-05-09T04:18:21.094Z,-84
2024-05-09T04:20:53.971Z,-84
2024-05-09T04:23:21.549Z,-84
2024-05-09T04:25:51.782Z,-84
2024-05-09T04:28:19.851Z,-84
2024-05-09T04:30:50.013Z,-84
2024-05-09T04:33:20.023Z,-84
2024-05-09T04:35:53.092Z,-83
2024-05-09T04:38:20.730Z,-83
2024-05-09T04:40:50.937Z,-84
2024-05-09T04:43:20.588Z,-84
2024-05-09T04:45:50.731Z,-84
2024-05-09T04:48:18.411Z,-84
2024-05-09T04:50:48.746Z,-84
2024-05-09T04:53:19.108Z,-84
2024-05-09T04:55:49.396Z,-83
2024-05-09T04:58:16.923Z,-83
2024-05-09T05:00:47.271Z,-84
2024-05-09T05:03:16.252Z,-84
2024-05-09T05:05:47.757Z,-84
2024-05-09T05:08:19.635Z,-84
2024-05-09T05:10:50.439Z,-84
2024-05-09T05:13:23.086Z,-83
2024-05-09T05:15:57.701Z,-83
2024-05-09T05:18:27.417Z,-84
2024-05-09T05:20:59.255Z,-84
2024-05-09T05:23:29.469Z,-83
2024-05-09T05:25:59.729Z,-84
2024-05-09T05:28:27.223Z,-83
2024-05-09T05:30:57.335Z,-83
2024-05-09T05:33:24.854Z,-84
2024-05-09T05:35:55.071Z,-84
2024-05-09T05:38:28.087Z,-84
2024-05-09T05:40:58.834Z,-84
2024-05-09T05:43:29.714Z,-83
2024-05-09T05:45:57.274Z,-83
2024-05-09T05:48:27.535Z,-84
2024-05-09T05:50:55.207Z,-84
2024-05-09T05:53:25.650Z,-84
2024-05-09T05:55:53.209Z,-84
2024-05-09T05:58:26.039Z,-84
2024-05-09T06:00:53.882Z,-84
2024-05-09T06:03:24.122Z,-84
2024-05-09T06:05:51.685Z,-84
2024-05-09T06:08:21.960Z,-83
2024-05-09T06:10:49.751Z,-83
2024-05-09T06:13:20.597Z,-84
2024-05-09T06:15:50.708Z,-84
2024-05-09T06:18:21.082Z,-84
2024-05-09T06:20:48.792Z,-84
2024-05-09T06:23:19.147Z,-84
2024-05-09T06:25:46.842Z,-84
2024-05-09T06:28:17.113Z,-84
2024-05-09T06:30:44.803Z,-83
2024-05-09T06:33:17.798Z,-84
2024-05-09T06:35:47.024Z,-84
2024-05-09T06:38:17.346Z,-85
2024-05-09T06:40:45.096Z,-85
2024-05-09T06:43:18.211Z,-84
2024-05-09T06:45:48.242Z,-85
2024-05-09T06:48:22.829Z,-85
2024-05-09T06:50:50.993Z,-85
2024-05-09T06:53:25.336Z,-85
2024-05-09T06:55:53.106Z,-85
2024-05-09T06:58:23.542Z,-85
2024-05-09T07:00:51.113Z,-86
2024-05-09T07:03:24.056Z,-85
2024-05-09T07:05:51.650Z,-85
2024-05-09T07:08:21.838Z,-85
2024-05-09T07:10:50.041Z,-85
2024-05-09T07:13:20.545Z,-85
2024-05-09T07:15:47.993Z,-84
2024-05-09T07:18:20.277Z,-85
2024-05-09T07:20:51.224Z,-85
2024-05-09T07:23:21.803Z,-85
2024-05-09T07:25:49.563Z,-85
2024-05-09T07:28:21.559Z,-84
2024-05-09T07:30:49.110Z,-85
2024-05-09T07:33:22.050Z,-85
2024-05-09T07:35:53.813Z,-85
2024-05-09T07:38:24.306Z,-85
2024-05-09T07:40:51.849Z,-85
2024-05-09T07:43:22.076Z,-85
2024-05-09T07:45:53.710Z,-85
2024-05-09T07:50:00.300Z,-85
2024-05-09T07:53:53.291Z,-84
2024-05-09T07:56:24.376Z,-84
2024-05-09T07:58:56.543Z,-85
2024-05-09T08:01:26.605Z,-85
2024-05-09T08:03:57.721Z,-84
2024-05-09T08:06:28.339Z,-85
2024-05-09T08:09:02.802Z,-85
2024-05-09T08:11:32.994Z,-84
2024-05-09T08:14:03.166Z,-85
2024-05-09T08:16:30.763Z,-85
2024-05-09T08:19:01.121Z,-85
2024-05-09T08:21:31.395Z,-85
2024-05-09T08:24:01.537Z,-86
2024-05-09T08:26:29.072Z,-85
2024-05-09T08:28:59.368Z,-86
2024-05-09T08:31:26.979Z,-85
2024-05-09T08:33:57.932Z,-86
2024-05-09T08:36:25.523Z,-85
2024-05-09T08:38:58.593Z,-86
2024-05-09T08:41:26.477Z,-86
2024-05-09T08:43:57.003Z,-85
2024-05-09T08:46:27.123Z,-85
2024-05-09T08:49:00.199Z,-85
2024-05-09T08:51:28.082Z,-86
2024-05-09T08:54:01.193Z,-85
2024-05-09T08:56:32.077Z,-85
2024-05-09T08:59:06.429Z,-85
2024-05-09T09:01:37.790Z,-85
2024-05-09T09:04:08.954Z,-85
2024-05-09T09:06:37.869Z,-85
2024-05-09T09:09:13.207Z,-85
2024-05-09T09:11:40.741Z,-85
2024-05-09T09:14:11.100Z,-85
2024-05-09T09:16:38.613Z,-85
2024-05-09T09:19:09.320Z,-84
2024-05-09T09:21:36.977Z,-84
2024-05-09T09:24:10.470Z,-84
2024-05-09T09:26:37.948Z,-84
2024-05-09T09:29:08.103Z,-85
2024-05-09T09:31:37.476Z,-85
2024-05-09T09:34:11.356Z,-85
2024-05-09T09:36:42.579Z,-85
2024-05-09T09:39:21.474Z,-85
2024-05-09T09:41:50.104Z,-85
2024-05-09T09:44:22.654Z,-85
2024-05-09T09:46:52.024Z,-84
2024-05-09T09:49:23.370Z,-84
2024-05-09T09:51:52.088Z,-85
2024-05-09T09:54:25.606Z,-84
2024-05-09T09:56:55.327Z,-85
2024-05-09T09:59:26.596Z,-85
2024-05-09T10:01:54.592Z,-84
2024-05-09T10:04:25.098Z,-84
2024-05-09T10:07:09.849Z,-84
2024-05-09T10:09:42.788Z,-85
2024-05-09T10:12:11.199Z,-85
2024-05-09T10:14:50.750Z,-85
2024-05-09T10:17:18.320Z,-85
2024-05-09T10:19:49.319Z,-85
2024-05-09T10:22:28.203Z,-85
2024-05-09T10:25:09.963Z,-85
2024-05-09T10:27:37.998Z,-85
2024-05-09T10:30:17.634Z,-85
2024-05-09T10:32:54.247Z,-85
2024-05-09T10:35:26.847Z,-84
2024-05-09T10:37:56.176Z,-85
2024-05-09T10:40:31.720Z,-85
2024-05-09T10:43:04.525Z,-84
2024-05-09T10:45:38.619Z,-84
2024-05-09T10:48:08.539Z,-84
2024-05-09T10:50:43.897Z,-85
2024-05-09T10:53:11.695Z,-85
2024-05-09T10:55:44.724Z,-85
2024-05-09T10:58:18.446Z,-85
2024-05-09T11:00:49.048Z,-84
2024-05-09T11:03:18.988Z,-84
2024-05-09T11:05:50.499Z,-85
2024-05-09T11:08:22.170Z,-84
2024-05-09T11:10:59.568Z,-85
2024-05-09T11:13:28.163Z,-83
2024-05-09T11:15:58.701Z,-81
2024-05-09T11:18:30.653Z,-83
2024-05-09T11:21:04.018Z,-82
2024-05-09T11:23:31.701Z,-83
2024-05-09T11:26:04.758Z,-84
2024-05-09T11:28:32.391Z,-84
2024-05-09T11:31:10.497Z,-83
2024-05-09T11:33:41.339Z,-83
2024-05-09T11:36:12.715Z,-84
2024-05-09T11:38:40.627Z,-83
2024-05-09T11:41:20.643Z,-84
2024-05-09T11:43:48.133Z,-81
2024-05-09T11:46:19.249Z,-81
2024-05-09T11:48:47.083Z,-81
2024-05-09T11:51:17.512Z,-81
2024-05-09T11:53:45.292Z,-84
2024-05-09T11:56:18.270Z,-81
2024-05-09T11:58:45.786Z,-81
2024-05-09T12:01:15.955Z,-81
2024-05-09T12:03:43.750Z,-82
2024-05-09T12:06:14.003Z,-84
2024-05-09T12:08:42.013Z,-84
2024-05-09T12:11:16.920Z,-84
2024-05-09T12:13:47.338Z,-85
2024-05-09T12:16:17.698Z,-85
2024-05-09T12:18:45.377Z,-84
2024-05-09T12:21:17.473Z,-85
2024-05-09T12:23:45.009Z,-86
2024-05-09T12:26:15.920Z,-86
2024-05-09T12:28:46.439Z,-86
2024-05-09T12:31:16.666Z,-86
2024-05-09T12:33:44.597Z,-86
2024-05-09T12:36:14.857Z,-85
2024-05-09T12:38:42.393Z,-85
2024-05-09T12:41:13.156Z,-85
2024-05-09T12:43:40.637Z,-86
2024-05-09T12:46:13.757Z,-84
2024-05-09T12:48:41.545Z,-84
2024-05-09T12:51:11.891Z,-84
2024-05-09T12:53:39.541Z,-84
2024-05-09T12:56:10.741Z,-85
2024-05-09T12:58:38.646Z,-85
2024-05-09T13:01:08.886Z,-85
2024-05-09T13:03:41.095Z,-85
2024-05-09T13:06:11.587Z,-84
2024-05-09T13:08:39.347Z,-84
2024-05-09T13:11:09.644Z,-85
2024-05-09T13:13:37.140Z,-85
2024-05-09T13:16:08.411Z,-85
2024-05-09T13:18:38.882Z,-85
2024-05-09T13:21:09.103Z,-85
2024-05-09T13:23:37.987Z,-85
2024-05-09T13:26:08.879Z,-85
2024-05-09T13:28:36.623Z,-85
2024-05-09T13:31:07.097Z,-85
2024-05-09T13:33:35.059Z,-84
2024-05-09T13:36:10.238Z,-85
2024-05-09T13:38:38.193Z,-85
2024-05-09T13:41:08.832Z,-85
2024-05-09T13:43:36.725Z,-86
2024-05-09T13:46:07.997Z,-86
2024-05-09T13:48:36.530Z,-87
2024-05-09T13:51:10.003Z,-86
2024-05-09T13:53:37.559Z,-86
2024-05-09T13:56:08.842Z,-86
2024-05-09T13:58:36.598Z,-86
2024-05-09T14:01:11.007Z,-87
2024-05-09T14:03:38.763Z,-87
2024-05-09T14:06:13.203Z,-86
2024-05-09T14:08:40.964Z,-87
2024-05-09T14:11:11.443Z,-86
2024-05-09T14:13:39.050Z,-86
2024-05-09T14:16:10.276Z,-87
2024-05-09T14:18:38.222Z,-87
2024-05-09T14:21:11.276Z,-86
2024-05-09T14:23:38.824Z,-86
2024-05-09T14:26:09.094Z,-86
2024-05-09T14:28:36.656Z,-86
2024-05-09T14:31:07.030Z,-86
2024-05-09T14:33:34.642Z,-87
2024-05-09T14:36:05.176Z,-87
2024-05-09T14:38:35.310Z,-87
2024-05-09T14:41:05.455Z,-86
2024-05-09T14:43:35.139Z,-86
2024-05-09T14:46:05.540Z,-87
2024-05-09T14:48:36.521Z,-87
2024-05-09T14:51:07.012Z,-87
2024-05-09T14:53:37.137Z,-87
2024-05-09T14:56:08.228Z,-88
2024-05-09T14:58:35.894Z,-87
2024-05-09T15:01:06.372Z,-86
2024-05-09T15:03:34.118Z,-85
2024-05-09T15:06:04.892Z,-84
2024-05-09T15:08:33.045Z,-84
2024-05-09T15:11:06.020Z,-84
2024-05-09T15:13:33.755Z,-84
2024-05-09T15:16:05.216Z,-84
2024-05-09T15:18:33.320Z,-84
2024-05-09T15:21:04.215Z,-84
2024-05-09T15:23:32.097Z,-84
2024-05-09T15:26:05.900Z,-84
2024-05-09T15:28:34.130Z,-83
2024-05-09T15:31:05.118Z,-83
2024-05-09T15:33:33.222Z,-84
2024-05-09T15:36:03.932Z,-83
2024-05-09T15:38:31.773Z,-83
2024-05-09T15:41:02.125Z,-84
2024-05-09T15:43:32.553Z,-84
2024-05-09T15:46:03.114Z,-85
2024-05-09T15:48:30.716Z,-85
2024-05-09T15:51:01.153Z,-85
2024-05-09T15:53:29.244Z,-86
2024-05-09T15:55:59.546Z,-86
2024-05-09T15:58:27.726Z,-85
2024-05-09T16:01:00.784Z,-86
2024-05-09T16:03:28.561Z,-86
2024-05-09T16:05:58.897Z,-85
2024-05-09T16:08:26.786Z,-85
2024-05-09T16:10:57.099Z,-86
2024-05-09T16:13:24.734Z,-86
2024-05-09T16:15:54.988Z,-86
2024-05-09T16:18:25.749Z,-86
2024-05-09T16:21:00.140Z,-86
2024-05-09T16:23:28.243Z,-85
2024-05-09T16:25:59.194Z,-86
2024-05-09T16:28:27.232Z,-86
2024-05-09T16:30:58.286Z,-85
2024-05-09T16:33:28.788Z,-87
2024-05-09T16:35:59.960Z,-84
2024-05-09T16:38:27.494Z,-84
2024-05-09T16:40:57.922Z,-85
2024-05-09T16:43:25.519Z,-84
2024-05-09T16:45:55.859Z,-84
2024-05-09T16:48:23.770Z,-85
2024-05-09T16:50:56.720Z,-84
2024-05-09T16:53:26.430Z,-85
2024-05-09T16:55:58.289Z,-84
2024-05-09T16:58:26.921Z,-85
2024-05-09T17:00:57.663Z,-84
2024-05-09T17:03:25.962Z,-84
2024-05-09T17:06:03.252Z,-83
2024-05-09T17:08:30.884Z,-84
2024-05-09T17:11:01.281Z,-84
2024-05-09T17:13:32.545Z,-83
2024-05-09T17:16:06.047Z,-83
2024-05-09T17:18:36.452Z,-83
2024-05-09T17:21:06.855Z,-83
2024-05-09T17:23:37.046Z,-83
2024-05-09T17:26:05.030Z,-82
2024-05-09T17:28:35.465Z,-82
2024-05-09T17:31:03.074Z,-81
2024-05-09T17:33:38.266Z,-81
2024-05-09T17:36:08.815Z,-82
2024-05-09T17:38:39.074Z,-83
2024-05-09T17:41:06.622Z,-82
2024-05-09T17:43:39.567Z,-82
2024-05-09T17:46:09.764Z,-82
2024-05-09T17:48:40.139Z,-83
2024-05-09T17:51:13.589Z,-82
2024-05-09T17:53:41.858Z,-84
2024-05-09T17:56:12.660Z,-83
2024-05-09T17:58:40.249Z,-83
2024-05-09T18:01:10.685Z,-83
2024-05-09T18:03:39.671Z,-81
2024-05-09T18:06:13.524Z,-82
2024-05-09T18:08:41.683Z,-82
2024-05-09T18:11:12.613Z,-83
2024-05-09T18:13:40.439Z,-84
2024-05-09T18:16:11.517Z,-82
2024-05-09T18:18:39.965Z,-82
2024-05-09T18:21:13.312Z,-82
2024-05-09T18:23:41.892Z,-82
2024-05-09T18:26:12.632Z,-82
2024-05-09T18:28:40.773Z,-82
2024-05-09T18:31:11.280Z,-82
2024-05-09T18:33:39.491Z,-82
2024-05-09T18:36:13.691Z,-82
2024-05-09T18:38:41.745Z,-83
2024-05-09T18:41:12.434Z,-82
2024-05-09T18:43:45.078Z,-82
2024-05-09T18:46:18.756Z,-81
2024-05-09T18:48:46.437Z,-86
2024-05-09T18:51:19.414Z,-85
2024-05-09T18:53:46.955Z,-87
2024-05-09T18:56:17.155Z,-86
2024-05-09T18:58:44.653Z,-86
2024-05-09T19:01:17.218Z,-87
2024-05-09T19:03:45.021Z,-86
2024-05-09T19:06:22.795Z,-86
2024-05-09T19:08:52.000Z,-86
2024-05-09T19:11:22.274Z,-86
2024-05-09T19:13:49.878Z,-86
2024-05-09T19:16:20.245Z,-85
2024-05-09T19:18:48.143Z,-86
2024-05-09T19:21:20.951Z,-85
2024-05-09T19:23:52.251Z,-85
2024-05-09T19:26:22.934Z,-85
2024-05-09T19:28:51.113Z,-86
2024-05-09T19:31:21.497Z,-85
2024-05-09T19:33:49.208Z,-86
2024-05-09T19:36:22.115Z,-86
2024-05-09T19:38:51.518Z,-85
2024-05-09T19:41:21.781Z,-85
2024-05-09T19:43:49.358Z,-86
2024-05-09T19:46:20.326Z,-85
2024-05-09T19:48:48.232Z,-85
2024-05-09T19:51:21.129Z,-85
2024-05-09T19:53:50.668Z,-85
2024-05-09T19:56:20.825Z,-85
2024-05-09T19:58:48.742Z,-85
2024-05-09T20:01:18.986Z,-85
2024-05-09T20:03:46.824Z,-85
2024-05-09T20:06:17.256Z,-85
2024-05-09T20:08:47.413Z,-85
2024-05-09T20:11:18.220Z,-85
2024-05-09T20:13:45.726Z,-86
2024-05-09T20:16:16.425Z,-86
2024-05-09T20:18:44.070Z,-86
2024-05-09T20:21:14.346Z,-85
2024-05-09T20:23:41.809Z,-86
2024-05-09T20:26:14.689Z,-86
2024-05-09T20:28:42.269Z,-86
2024-05-09T20:31:24.085Z,-85
2024-05-09T20:34:05.275Z,-85
2024-05-09T20:36:37.158Z,-85
2024-05-09T20:39:04.768Z,-84
2024-05-09T20:41:37.790Z,-85
2024-05-09T20:44:05.744Z,-85
2024-05-09T20:46:35.861Z,-85
2024-05-09T20:49:03.414Z,-85
2024-05-09T20:51:33.725Z,-85
2024-05-09T20:54:01.254Z,-85
2024-05-09T20:56:31.380Z,-84
2024-05-09T20:59:01.625Z,-85
2024-05-09T21:01:31.815Z,-85
2024-05-09T21:04:00.288Z,-85
2024-05-09T21:06:30.618Z,-85
2024-05-09T21:08:58.628Z,-85
2024-05-09T21:11:28.744Z,-85
2024-05-09T21:13:56.239Z,-86
2024-05-09T21:16:29.223Z,-86
2024-05-09T21:18:56.728Z,-86
2024-05-09T21:21:26.801Z,-85
2024-05-09T21:23:54.244Z,-86
2024-05-09T21:26:25.676Z,-86
2024-05-09T21:28:53.136Z,-86
2024-05-09T21:31:23.519Z,-85
2024-05-09T21:33:54.030Z,-86
2024-05-09T21:36:24.245Z,-86
2024-05-09T21:38:51.681Z,-86
2024-05-09T21:41:21.777Z,-86
2024-05-09T21:43:49.241Z,-85
2024-05-09T21:46:19.758Z,-86
2024-05-09T21:48:47.511Z,-86
2024-05-09T21:51:20.619Z,-86
2024-05-09T21:53:49.060Z,-86
2024-05-09T21:56:19.466Z,-85
2024-05-09T21:58:46.993Z,-85
2024-05-09T22:01:17.482Z,-85
2024-05-09T22:03:45.283Z,-85
2024-05-09T22:06:15.574Z,-85
2024-05-09T22:08:46.624Z,-85
2024-05-09T22:11:16.984Z,-85
2024-05-09T22:13:44.492Z,-85
2024-05-09T22:16:14.705Z,-85
2024-05-09T22:18:42.290Z,-85
2024-05-09T22:21:12.625Z,-85
2024-05-09T22:23:40.410Z,-85
2024-05-09T22:26:13.235Z,-85
2024-05-09T22:28:40.999Z,-84
2024-05-09T22:31:12.182Z,-85
2024-05-09T22:33:40.276Z,-85
2024-05-09T22:36:11.461Z,-85
2024-05-09T22:38:39.362Z,-84
2024-05-09T22:41:12.499Z,-84
2024-05-09T22:43:40.248Z,-84
2024-05-09T22:46:10.382Z,-84
2024-05-09T22:48:38.215Z,-84
2024-05-09T22:51:09.062Z,-84
2024-05-09T22:53:36.674Z,-85
2024-05-09T22:56:07.030Z,-84
2024-05-09T22:58:37.229Z,-84
2024-05-09T23:01:07.876Z,-84
2024-05-09T23:03:35.604Z,-85
2024-05-09T23:06:09.407Z,-85
2024-05-09T23:08:36.976Z,-85
2024-05-09T23:11:07.653Z,-85
2024-05-09T23:13:38.040Z,-85
2024-05-09T23:16:09.446Z,-85
2024-05-09T23:18:37.198Z,-85
2024-05-09T23:21:08.245Z,-85
2024-05-09T23:23:35.752Z,-85
2024-05-09T23:26:05.912Z,-85
2024-05-09T23:28:36.403Z,-84
2024-05-09T23:31:08.160Z,-85
2024-05-09T23:33:36.026Z,-85
2024-05-09T23:36:06.468Z,-85
2024-05-09T23:38:33.954Z,-86
2024-05-09T23:41:04.090Z,-86
2024-05-09T23:43:32.072Z,-85
2024-05-09T23:46:05.083Z,-85
2024-05-09T23:48:32.855Z,-85
2024-05-09T23:51:03.132Z,-86
2024-05-09T23:53:30.771Z,-85
2024-05-09T23:56:00.870Z,-85
2024-05-09T23:58:29.221Z,-85
